Saint Agatha, Maine
Current Conditions -  °F | °C
As of 11:07 PM on Sunday 21 Dec 2014 (Local Time) from KFVE Reporting Station
Overcast Overcast  
Wind Chill: 19°   Ceiling: 1300
Heat Index: 19°   Visibility: 10mi
Dew Point: 17°   Wind: 0mph
Humidity: 92%   Direction: NA
Pressure: 30.33"   Gusts: NA
Location:  47.24°N, 68.31°W
Report Text: KFVE 220407Z AUTO 00000KT 10SM SCT006 OVC013 M07/M08 A3033 RMK AO2 T10721083
Loading
Personal Weather Stations






























Interactive Weather Map New forecast layout! Learn more

10-Day Weather Forecast

Advertisements
Track Severe Weather on mobile